sensor_id;sensor_type;location;lat;lon;timestamp;P1;durP1;ratioP1;P2;durP2;ratioP2
62707;SDS011;48769;51.624;5.886;2023-11-21T00:00:21;37.28;;;19.90;;
62707;SDS011;48769;51.624;5.886;2023-11-21T00:02:46;34.60;;;19.88;;
62707;SDS011;48769;51.624;5.886;2023-11-21T00:05:12;36.00;;;20.05;;
62707;SDS011;48769;51.624;5.886;2023-11-21T00:07:41;38.38;;;21.65;;
62707;SDS011;48769;51.624;5.886;2023-11-21T00:10:07;39.40;;;21.27;;
62707;SDS011;48769;51.624;5.886;2023-11-21T00:12:35;42.63;;;21.30;;
62707;SDS011;48769;51.624;5.886;2023-11-21T00:15:00;42.40;;;20.92;;
62707;SDS011;48769;51.624;5.886;2023-11-21T00:17:26;42.95;;;21.95;;
62707;SDS011;48769;51.624;5.886;2023-11-21T00:19:52;40.60;;;23.38;;
62707;SDS011;48769;51.624;5.886;2023-11-21T00:22:18;49.75;;;21.17;;
62707;SDS011;48769;51.624;5.886;2023-11-21T00:24:43;41.28;;;22.73;;
62707;SDS011;48769;51.624;5.886;2023-11-21T00:27:09;47.85;;;23.10;;
62707;SDS011;48769;51.624;5.886;2023-11-21T00:29:35;51.25;;;24.10;;
62707;SDS011;48769;51.624;5.886;2023-11-21T00:32:00;42.47;;;22.02;;
62707;SDS011;48769;51.624;5.886;2023-11-21T00:34:25;47.08;;;22.00;;
62707;SDS011;48769;51.624;5.886;2023-11-21T00:36:51;37.92;;;21.65;;
62707;SDS011;48769;51.624;5.886;2023-11-21T00:39:16;45.67;;;23.58;;
62707;SDS011;48769;51.624;5.886;2023-11-21T00:41:41;46.08;;;23.25;;
62707;SDS011;48769;51.624;5.886;2023-11-21T00:44:07;47.15;;;24.00;;
62707;SDS011;48769;51.624;5.886;2023-11-21T00:46:32;53.88;;;25.05;;
62707;SDS011;48769;51.624;5.886;2023-11-21T00:48:58;42.22;;;23.63;;
62707;SDS011;48769;51.624;5.886;2023-11-21T00:51:23;45.47;;;24.88;;
62707;SDS011;48769;51.624;5.886;2023-11-21T00:53:49;52.15;;;25.23;;
62707;SDS011;48769;51.624;5.886;2023-11-21T00:56:14;46.85;;;24.58;;
62707;SDS011;48769;51.624;5.886;2023-11-21T00:58:40;50.20;;;24.75;;
62707;SDS011;48769;51.624;5.886;2023-11-21T01:01:11;46.92;;;24.42;;
62707;SDS011;48769;51.624;5.886;2023-11-21T01:03:36;44.47;;;22.17;;
62707;SDS011;48769;51.624;5.886;2023-11-21T01:06:02;51.90;;;23.65;;
62707;SDS011;48769;51.624;5.886;2023-11-21T01:08:27;48.30;;;22.77;;
62707;SDS011;48769;51.624;5.886;2023-11-21T01:10:53;44.97;;;22.63;;
62707;SDS011;48769;51.624;5.886;2023-11-21T01:13:19;43.72;;;22.33;;
62707;SDS011;48769;51.624;5.886;2023-11-21T01:15:45;41.25;;;23.10;;
62707;SDS011;48769;51.624;5.886;2023-11-21T01:18:11;37.92;;;21.40;;
62707;SDS011;48769;51.624;5.886;2023-11-21T01:20:36;46.88;;;23.45;;
62707;SDS011;48769;51.624;5.886;2023-11-21T01:23:01;45.13;;;23.98;;
62707;SDS011;48769;51.624;5.886;2023-11-21T01:25:27;47.45;;;24.60;;
62707;SDS011;48769;51.624;5.886;2023-11-21T01:27:52;42.67;;;24.20;;
62707;SDS011;48769;51.624;5.886;2023-11-21T01:30:18;50.70;;;25.33;;
62707;SDS011;48769;51.624;5.886;2023-11-21T01:32:43;51.55;;;25.90;;
62707;SDS011;48769;51.624;5.886;2023-11-21T01:35:08;45.58;;;25.83;;
62707;SDS011;48769;51.624;5.886;2023-11-21T01:37:35;61.47;;;28.05;;
62707;SDS011;48769;51.624;5.886;2023-11-21T01:40:00;67.35;;;30.60;;
62707;SDS011;48769;51.624;5.886;2023-11-21T01:42:27;63.88;;;30.65;;
62707;SDS011;48769;51.624;5.886;2023-11-21T01:44:54;53.05;;;28.38;;
62707;SDS011;48769;51.624;5.886;2023-11-21T01:47:19;68.20;;;33.05;;
62707;SDS011;48769;51.624;5.886;2023-11-21T01:49:46;73.95;;;31.15;;
62707;SDS011;48769;51.624;5.886;2023-11-21T01:52:12;74.95;;;32.83;;
62707;SDS011;48769;51.624;5.886;2023-11-21T01:54:38;84.28;;;33.83;;
62707;SDS011;48769;51.624;5.886;2023-11-21T01:57:04;74.60;;;34.50;;
62707;SDS011;48769;51.624;5.886;2023-11-21T01:59:34;75.75;;;32.65;;
62707;SDS011;48769;51.624;5.886;2023-11-21T02:02:05;80.10;;;33.75;;
62707;SDS011;48769;51.624;5.886;2023-11-21T02:04:32;81.32;;;34.80;;
62707;SDS011;48769;51.624;5.886;2023-11-21T02:06:57;84.40;;;35.90;;
62707;SDS011;48769;51.624;5.886;2023-11-21T02:09:26;77.85;;;34.90;;
62707;SDS011;48769;51.624;5.886;2023-11-21T02:11:52;86.32;;;37.72;;
62707;SDS011;48769;51.624;5.886;2023-11-21T02:14:19;156.60;;;38.70;;
62707;SDS011;48769;51.624;5.886;2023-11-21T02:16:47;129.93;;;39.95;;
62707;SDS011;48769;51.624;5.886;2023-11-21T02:19:14;123.25;;;38.60;;
62707;SDS011;48769;51.624;5.886;2023-11-21T02:21:45;154.40;;;40.70;;
62707;SDS011;48769;51.624;5.886;2023-11-21T02:24:13;170.63;;;43.63;;
62707;SDS011;48769;51.624;5.886;2023-11-21T02:26:38;171.50;;;41.63;;
62707;SDS011;48769;51.624;5.886;2023-11-21T02:29:03;193.05;;;43.15;;
62707;SDS011;48769;51.624;5.886;2023-11-21T02:31:29;149.55;;;41.33;;
62707;SDS011;48769;51.624;5.886;2023-11-21T02:33:55;149.88;;;39.15;;
62707;SDS011;48769;51.624;5.886;2023-11-21T02:36:20;190.48;;;42.20;;
62707;SDS011;48769;51.624;5.886;2023-11-21T02:38:46;178.80;;;43.33;;
62707;SDS011;48769;51.624;5.886;2023-11-21T02:41:12;161.30;;;42.95;;
62707;SDS011;48769;51.624;5.886;2023-11-21T02:43:38;179.35;;;43.25;;
62707;SDS011;48769;51.624;5.886;2023-11-21T02:46:03;138.60;;;40.72;;
62707;SDS011;48769;51.624;5.886;2023-11-21T02:48:29;207.02;;;44.85;;
62707;SDS011;48769;51.624;5.886;2023-11-21T02:50:55;214.95;;;44.90;;
62707;SDS011;48769;51.624;5.886;2023-11-21T02:53:21;192.38;;;41.50;;
62707;SDS011;48769;51.624;5.886;2023-11-21T02:55:46;171.55;;;41.72;;
62707;SDS011;48769;51.624;5.886;2023-11-21T02:58:11;194.10;;;41.63;;
62707;SDS011;48769;51.624;5.886;2023-11-21T03:00:37;198.77;;;39.75;;
62707;SDS011;48769;51.624;5.886;2023-11-21T03:03:02;202.68;;;37.72;;
62707;SDS011;48769;51.624;5.886;2023-11-21T03:05:29;260.15;;;43.85;;
62707;SDS011;48769;51.624;5.886;2023-11-21T03:07:54;186.23;;;38.45;;
62707;SDS011;48769;51.624;5.886;2023-11-21T03:10:20;202.90;;;42.75;;
62707;SDS011;48769;51.624;5.886;2023-11-21T03:12:45;184.93;;;42.10;;
62707;SDS011;48769;51.624;5.886;2023-11-21T03:15:11;268.55;;;45.67;;
62707;SDS011;48769;51.624;5.886;2023-11-21T03:17:36;187.20;;;41.65;;
62707;SDS011;48769;51.624;5.886;2023-11-21T03:20:02;172.57;;;43.22;;
62707;SDS011;48769;51.624;5.886;2023-11-21T03:22:28;203.40;;;41.88;;
62707;SDS011;48769;51.624;5.886;2023-11-21T03:24:54;139.98;;;39.63;;
62707;SDS011;48769;51.624;5.886;2023-11-21T03:27:19;193.93;;;41.75;;
62707;SDS011;48769;51.624;5.886;2023-11-21T03:29:44;204.23;;;41.05;;
62707;SDS011;48769;51.624;5.886;2023-11-21T03:32:11;183.38;;;43.22;;
62707;SDS011;48769;51.624;5.886;2023-11-21T03:34:52;227.48;;;42.75;;
62707;SDS011;48769;51.624;5.886;2023-11-21T03:37:19;218.00;;;41.00;;
62707;SDS011;48769;51.624;5.886;2023-11-21T03:39:45;132.60;;;38.78;;
62707;SDS011;48769;51.624;5.886;2023-11-21T03:42:11;189.50;;;45.25;;
62707;SDS011;48769;51.624;5.886;2023-11-21T03:44:36;155.35;;;40.75;;
62707;SDS011;48769;51.624;5.886;2023-11-21T03:47:01;167.07;;;42.60;;
62707;SDS011;48769;51.624;5.886;2023-11-21T03:49:27;112.15;;;37.88;;
62707;SDS011;48769;51.624;5.886;2023-11-21T03:51:54;165.20;;;41.28;;
62707;SDS011;48769;51.624;5.886;2023-11-21T03:54:19;162.70;;;42.67;;
62707;SDS011;48769;51.624;5.886;2023-11-21T03:56:45;165.15;;;40.65;;
62707;SDS011;48769;51.624;5.886;2023-11-21T03:59:10;191.77;;;39.58;;
62707;SDS011;48769;51.624;5.886;2023-11-21T04:01:36;142.32;;;39.30;;
62707;SDS011;48769;51.624;5.886;2023-11-21T04:04:02;168.00;;;40.17;;
62707;SDS011;48769;51.624;5.886;2023-11-21T04:06:27;136.82;;;38.55;;
62707;SDS011;48769;51.624;5.886;2023-11-21T04:08:52;161.63;;;39.15;;
62707;SDS011;48769;51.624;5.886;2023-11-21T04:11:18;147.95;;;38.00;;
62707;SDS011;48769;51.624;5.886;2023-11-21T04:13:43;152.45;;;37.85;;
62707;SDS011;48769;51.624;5.886;2023-11-21T04:16:09;83.95;;;36.25;;
62707;SDS011;48769;51.624;5.886;2023-11-21T04:18:37;151.63;;;38.20;;
62707;SDS011;48769;51.624;5.886;2023-11-21T04:21:04;155.63;;;39.33;;
62707;SDS011;48769;51.624;5.886;2023-11-21T04:23:30;130.93;;;38.95;;
62707;SDS011;48769;51.624;5.886;2023-11-21T04:25:56;163.82;;;36.97;;
62707;SDS011;48769;51.624;5.886;2023-11-21T04:28:22;141.55;;;36.15;;
62707;SDS011;48769;51.624;5.886;2023-11-21T04:30:49;103.13;;;32.60;;
62707;SDS011;48769;51.624;5.886;2023-11-21T04:33:15;167.48;;;38.95;;
62707;SDS011;48769;51.624;5.886;2023-11-21T04:35:41;114.03;;;35.10;;
62707;SDS011;48769;51.624;5.886;2023-11-21T04:38:06;162.55;;;35.72;;
62707;SDS011;48769;51.624;5.886;2023-11-21T04:40:31;140.05;;;36.90;;
62707;SDS011;48769;51.624;5.886;2023-11-21T04:42:57;145.38;;;36.72;;
62707;SDS011;48769;51.624;5.886;2023-11-21T04:45:22;131.77;;;36.80;;
62707;SDS011;48769;51.624;5.886;2023-11-21T04:47:47;157.55;;;37.28;;
62707;SDS011;48769;51.624;5.886;2023-11-21T04:50:13;143.98;;;36.92;;
62707;SDS011;48769;51.624;5.886;2023-11-21T04:52:38;144.75;;;36.70;;
62707;SDS011;48769;51.624;5.886;2023-11-21T04:55:04;123.07;;;35.95;;
62707;SDS011;48769;51.624;5.886;2023-11-21T04:57:31;117.93;;;36.30;;
62707;SDS011;48769;51.624;5.886;2023-11-21T04:59:57;122.45;;;36.95;;
62707;SDS011;48769;51.624;5.886;2023-11-21T05:02:22;141.02;;;37.80;;
62707;SDS011;48769;51.624;5.886;2023-11-21T05:04:48;120.45;;;36.08;;
62707;SDS011;48769;51.624;5.886;2023-11-21T05:07:13;125.57;;;35.67;;
62707;SDS011;48769;51.624;5.886;2023-11-21T05:09:42;97.70;;;37.33;;
62707;SDS011;48769;51.624;5.886;2023-11-21T05:12:09;119.63;;;36.45;;
62707;SDS011;48769;51.624;5.886;2023-11-21T05:14:35;93.57;;;36.83;;
62707;SDS011;48769;51.624;5.886;2023-11-21T05:17:00;105.18;;;38.15;;
62707;SDS011;48769;51.624;5.886;2023-11-21T05:19:26;92.32;;;37.08;;
62707;SDS011;48769;51.624;5.886;2023-11-21T05:21:52;91.32;;;38.78;;
62707;SDS011;48769;51.624;5.886;2023-11-21T05:24:17;80.38;;;36.33;;
62707;SDS011;48769;51.624;5.886;2023-11-21T05:26:42;89.55;;;34.35;;
62707;SDS011;48769;51.624;5.886;2023-11-21T05:29:08;80.50;;;35.50;;
62707;SDS011;48769;51.624;5.886;2023-11-21T05:31:35;123.30;;;36.90;;
62707;SDS011;48769;51.624;5.886;2023-11-21T05:34:00;88.85;;;36.17;;
62707;SDS011;48769;51.624;5.886;2023-11-21T05:36:25;78.95;;;33.97;;
62707;SDS011;48769;51.624;5.886;2023-11-21T05:38:50;68.53;;;33.53;;
62707;SDS011;48769;51.624;5.886;2023-11-21T05:41:16;69.78;;;32.85;;
62707;SDS011;48769;51.624;5.886;2023-11-21T05:43:41;75.38;;;36.05;;
62707;SDS011;48769;51.624;5.886;2023-11-21T05:46:07;75.05;;;33.70;;
62707;SDS011;48769;51.624;5.886;2023-11-21T05:48:33;69.00;;;34.22;;
62707;SDS011;48769;51.624;5.886;2023-11-21T05:51:01;75.88;;;34.92;;
62707;SDS011;48769;51.624;5.886;2023-11-21T05:53:28;82.40;;;35.58;;
62707;SDS011;48769;51.624;5.886;2023-11-21T05:55:53;73.50;;;35.33;;
62707;SDS011;48769;51.624;5.886;2023-11-21T05:58:18;74.15;;;35.50;;
62707;SDS011;48769;51.624;5.886;2023-11-21T06:00:44;67.80;;;34.85;;
62707;SDS011;48769;51.624;5.886;2023-11-21T06:03:09;65.07;;;32.95;;
62707;SDS011;48769;51.624;5.886;2023-11-21T06:05:34;64.22;;;33.33;;
62707;SDS011;48769;51.624;5.886;2023-11-21T06:08:00;67.43;;;34.00;;
62707;SDS011;48769;51.624;5.886;2023-11-21T06:10:26;58.88;;;33.35;;
62707;SDS011;48769;51.624;5.886;2023-11-21T06:12:52;59.50;;;32.58;;
62707;SDS011;48769;51.624;5.886;2023-11-21T06:15:18;62.58;;;32.70;;
62707;SDS011;48769;51.624;5.886;2023-11-21T06:17:47;60.05;;;32.33;;
62707;SDS011;48769;51.624;5.886;2023-11-21T06:20:17;54.80;;;31.27;;
62707;SDS011;48769;51.624;5.886;2023-11-21T06:22:44;58.95;;;31.75;;
62707;SDS011;48769;51.624;5.886;2023-11-21T06:25:11;62.28;;;32.70;;
62707;SDS011;48769;51.624;5.886;2023-11-21T06:27:42;59.30;;;32.10;;
62707;SDS011;48769;51.624;5.886;2023-11-21T06:30:16;56.50;;;31.13;;
62707;SDS011;48769;51.624;5.886;2023-11-21T06:32:43;62.60;;;32.97;;
62707;SDS011;48769;51.624;5.886;2023-11-21T06:35:10;52.88;;;31.25;;
62707;SDS011;48769;51.624;5.886;2023-11-21T06:37:36;56.47;;;31.90;;
62707;SDS011;48769;51.624;5.886;2023-11-21T06:40:02;57.28;;;32.25;;
62707;SDS011;48769;51.624;5.886;2023-11-21T06:42:29;57.28;;;32.17;;
62707;SDS011;48769;51.624;5.886;2023-11-21T06:44:54;57.47;;;31.52;;
62707;SDS011;48769;51.624;5.886;2023-11-21T06:47:24;54.40;;;31.92;;
62707;SDS011;48769;51.624;5.886;2023-11-21T06:49:50;54.80;;;32.88;;
62707;SDS011;48769;51.624;5.886;2023-11-21T06:52:16;57.60;;;31.83;;
62707;SDS011;48769;51.624;5.886;2023-11-21T06:54:41;52.63;;;31.63;;
62707;SDS011;48769;51.624;5.886;2023-11-21T06:57:06;52.70;;;30.08;;
62707;SDS011;48769;51.624;5.886;2023-11-21T06:59:32;52.92;;;32.00;;
62707;SDS011;48769;51.624;5.886;2023-11-21T07:01:58;53.08;;;30.85;;
62707;SDS011;48769;51.624;5.886;2023-11-21T07:04:23;48.38;;;29.50;;
62707;SDS011;48769;51.624;5.886;2023-11-21T07:06:50;50.55;;;31.75;;
62707;SDS011;48769;51.624;5.886;2023-11-21T07:09:16;51.45;;;31.50;;
62707;SDS011;48769;51.624;5.886;2023-11-21T07:11:41;51.17;;;31.83;;
62707;SDS011;48769;51.624;5.886;2023-11-21T07:14:07;47.08;;;30.10;;
62707;SDS011;48769;51.624;5.886;2023-11-21T07:16:34;51.53;;;32.13;;
62707;SDS011;48769;51.624;5.886;2023-11-21T07:19:02;49.35;;;31.55;;
62707;SDS011;48769;51.624;5.886;2023-11-21T07:21:31;48.42;;;31.55;;
62707;SDS011;48769;51.624;5.886;2023-11-21T07:23:58;51.25;;;30.85;;
62707;SDS011;48769;51.624;5.886;2023-11-21T07:26:23;52.20;;;30.20;;
62707;SDS011;48769;51.624;5.886;2023-11-21T07:28:50;50.10;;;31.48;;
62707;SDS011;48769;51.624;5.886;2023-11-21T07:31:15;51.03;;;31.38;;
62707;SDS011;48769;51.624;5.886;2023-11-21T07:33:41;45.78;;;28.67;;
62707;SDS011;48769;51.624;5.886;2023-11-21T07:36:06;47.95;;;30.75;;
62707;SDS011;48769;51.624;5.886;2023-11-21T07:38:32;52.35;;;32.15;;
62707;SDS011;48769;51.624;5.886;2023-11-21T07:40:58;56.22;;;32.33;;
62707;SDS011;48769;51.624;5.886;2023-11-21T07:43:26;60.00;;;33.75;;
62707;SDS011;48769;51.624;5.886;2023-11-21T07:45:51;52.35;;;32.72;;
62707;SDS011;48769;51.624;5.886;2023-11-21T07:48:17;53.42;;;34.45;;
62707;SDS011;48769;51.624;5.886;2023-11-21T07:50:45;60.10;;;33.85;;
62707;SDS011;48769;51.624;5.886;2023-11-21T07:53:19;54.33;;;32.47;;
62707;SDS011;48769;51.624;5.886;2023-11-21T07:55:45;53.22;;;32.30;;
62707;SDS011;48769;51.624;5.886;2023-11-21T07:58:12;57.03;;;32.80;;
62707;SDS011;48769;51.624;5.886;2023-11-21T08:00:37;58.88;;;34.05;;
62707;SDS011;48769;51.624;5.886;2023-11-21T08:03:04;51.42;;;31.98;;
62707;SDS011;48769;51.624;5.886;2023-11-21T08:05:30;58.58;;;33.28;;
62707;SDS011;48769;51.624;5.886;2023-11-21T08:07:56;55.42;;;33.00;;
62707;SDS011;48769;51.624;5.886;2023-11-21T08:10:21;49.90;;;33.15;;
62707;SDS011;48769;51.624;5.886;2023-11-21T08:12:47;51.80;;;31.63;;
62707;SDS011;48769;51.624;5.886;2023-11-21T08:15:13;47.90;;;32.05;;
62707;SDS011;48769;51.624;5.886;2023-11-21T08:17:39;55.38;;;31.92;;
62707;SDS011;48769;51.624;5.886;2023-11-21T08:20:04;50.92;;;30.45;;
62707;SDS011;48769;51.624;5.886;2023-11-21T08:22:31;50.40;;;32.35;;
62707;SDS011;48769;51.624;5.886;2023-11-21T08:24:57;53.42;;;32.03;;
62707;SDS011;48769;51.624;5.886;2023-11-21T08:27:22;46.88;;;29.92;;
62707;SDS011;48769;51.624;5.886;2023-11-21T08:29:48;52.28;;;32.00;;
62707;SDS011;48769;51.624;5.886;2023-11-21T08:32:13;46.80;;;30.23;;
62707;SDS011;48769;51.624;5.886;2023-11-21T08:34:38;46.20;;;30.33;;
62707;SDS011;48769;51.624;5.886;2023-11-21T08:37:05;53.95;;;31.13;;
62707;SDS011;48769;51.624;5.886;2023-11-21T08:39:30;46.42;;;29.00;;
62707;SDS011;48769;51.624;5.886;2023-11-21T08:41:56;46.05;;;29.30;;
62707;SDS011;48769;51.624;5.886;2023-11-21T08:44:22;44.10;;;28.65;;
62707;SDS011;48769;51.624;5.886;2023-11-21T08:46:48;45.45;;;29.33;;
62707;SDS011;48769;51.624;5.886;2023-11-21T08:49:14;46.63;;;29.33;;
62707;SDS011;48769;51.624;5.886;2023-11-21T08:51:40;46.13;;;29.40;;
62707;SDS011;48769;51.624;5.886;2023-11-21T08:54:05;43.97;;;28.50;;
62707;SDS011;48769;51.624;5.886;2023-11-21T08:56:33;45.60;;;28.52;;
62707;SDS011;48769;51.624;5.886;2023-11-21T08:58:59;42.40;;;28.48;;
62707;SDS011;48769;51.624;5.886;2023-11-21T09:01:27;45.67;;;29.02;;
62707;SDS011;48769;51.624;5.886;2023-11-21T09:03:52;48.58;;;30.27;;
62707;SDS011;48769;51.624;5.886;2023-11-21T09:06:18;39.83;;;26.92;;
62707;SDS011;48769;51.624;5.886;2023-11-21T09:08:43;40.17;;;27.83;;
62707;SDS011;48769;51.624;5.886;2023-11-21T09:11:08;43.05;;;28.98;;
62707;SDS011;48769;51.624;5.886;2023-11-21T09:13:34;40.53;;;26.58;;
62707;SDS011;48769;51.624;5.886;2023-11-21T09:15:59;38.35;;;26.60;;
62707;SDS011;48769;51.624;5.886;2023-11-21T09:18:25;39.50;;;26.05;;
62707;SDS011;48769;51.624;5.886;2023-11-21T09:20:50;36.38;;;26.13;;
62707;SDS011;48769;51.624;5.886;2023-11-21T09:23:16;38.60;;;26.23;;
62707;SDS011;48769;51.624;5.886;2023-11-21T09:25:41;41.83;;;27.00;;
62707;SDS011;48769;51.624;5.886;2023-11-21T09:28:07;37.33;;;25.33;;
62707;SDS011;48769;51.624;5.886;2023-11-21T09:30:33;36.83;;;25.50;;
62707;SDS011;48769;51.624;5.886;2023-11-21T09:33:00;34.75;;;24.77;;
62707;SDS011;48769;51.624;5.886;2023-11-21T09:35:26;35.55;;;24.88;;
62707;SDS011;48769;51.624;5.886;2023-11-21T09:37:52;39.42;;;25.95;;
62707;SDS011;48769;51.624;5.886;2023-11-21T09:40:20;38.47;;;24.65;;
62707;SDS011;48769;51.624;5.886;2023-11-21T09:42:56;44.42;;;27.45;;
62707;SDS011;48769;51.624;5.886;2023-11-21T09:45:26;44.13;;;27.65;;
62707;SDS011;48769;51.624;5.886;2023-11-21T09:47:53;46.50;;;27.35;;
62707;SDS011;48769;51.624;5.886;2023-11-21T09:50:23;45.80;;;27.88;;
62707;SDS011;48769;51.624;5.886;2023-11-21T09:55:15;42.33;;;25.48;;
62707;SDS011;48769;51.624;5.886;2023-11-21T09:57:44;43.30;;;27.70;;
62707;SDS011;48769;51.624;5.886;2023-11-21T10:00:10;44.53;;;27.02;;
62707;SDS011;48769;51.624;5.886;2023-11-21T10:02:37;45.10;;;26.55;;
62707;SDS011;48769;51.624;5.886;2023-11-21T10:05:04;44.22;;;27.35;;
62707;SDS011;48769;51.624;5.886;2023-11-21T10:07:30;48.00;;;28.42;;
62707;SDS011;48769;51.624;5.886;2023-11-21T10:09:57;42.70;;;26.25;;
62707;SDS011;48769;51.624;5.886;2023-11-21T10:12:24;52.25;;;28.58;;
62707;SDS011;48769;51.624;5.886;2023-11-21T10:14:52;46.88;;;29.40;;
62707;SDS011;48769;51.624;5.886;2023-11-21T10:17:20;49.05;;;28.52;;
62707;SDS011;48769;51.624;5.886;2023-11-21T10:19:49;47.20;;;28.60;;
62707;SDS011;48769;51.624;5.886;2023-11-21T10:22:15;42.47;;;27.35;;
62707;SDS011;48769;51.624;5.886;2023-11-21T10:24:41;48.90;;;29.52;;
62707;SDS011;48769;51.624;5.886;2023-11-21T10:27:08;55.78;;;30.38;;
62707;SDS011;48769;51.624;5.886;2023-11-21T10:29:33;51.42;;;30.73;;
62707;SDS011;48769;51.624;5.886;2023-11-21T10:32:03;44.92;;;28.45;;
62707;SDS011;48769;51.624;5.886;2023-11-21T10:34:30;51.72;;;29.88;;
62707;SDS011;48769;51.624;5.886;2023-11-21T10:36:56;51.42;;;29.65;;
62707;SDS011;48769;51.624;5.886;2023-11-21T10:39:23;49.75;;;30.25;;
62707;SDS011;48769;51.624;5.886;2023-11-21T10:41:52;53.90;;;30.73;;
62707;SDS011;48769;51.624;5.886;2023-11-21T10:44:19;50.20;;;31.25;;
62707;SDS011;48769;51.624;5.886;2023-11-21T10:46:46;60.50;;;34.35;;
62707;SDS011;48769;51.624;5.886;2023-11-21T10:49:22;50.58;;;31.10;;
62707;SDS011;48769;51.624;5.886;2023-11-21T10:51:52;49.50;;;30.88;;
62707;SDS011;48769;51.624;5.886;2023-11-21T10:54:19;51.55;;;31.15;;
62707;SDS011;48769;51.624;5.886;2023-11-21T10:56:45;53.88;;;32.72;;
62707;SDS011;48769;51.624;5.886;2023-11-21T10:59:15;58.78;;;33.97;;
62707;SDS011;48769;51.624;5.886;2023-11-21T11:01:45;57.53;;;32.55;;
62707;SDS011;48769;51.624;5.886;2023-11-21T11:04:13;60.88;;;36.47;;
62707;SDS011;48769;51.624;5.886;2023-11-21T11:06:44;58.75;;;32.58;;
62707;SDS011;48769;51.624;5.886;2023-11-21T11:09:15;60.10;;;32.78;;
62707;SDS011;48769;51.624;5.886;2023-11-21T11:11:41;60.75;;;34.03;;
62707;SDS011;48769;51.624;5.886;2023-11-21T11:14:10;56.72;;;31.85;;
62707;SDS011;48769;51.624;5.886;2023-11-21T11:16:36;55.00;;;31.85;;
62707;SDS011;48769;51.624;5.886;2023-11-21T11:19:06;70.68;;;37.22;;
62707;SDS011;48769;51.624;5.886;2023-11-21T11:35:51;63.47;;;33.97;;
62707;SDS011;48769;51.624;5.886;2023-11-21T11:38:22;56.72;;;33.10;;
62707;SDS011;48769;51.624;5.886;2023-11-21T11:40:52;65.03;;;33.53;;
62707;SDS011;48769;51.624;5.886;2023-11-21T11:43:27;65.03;;;35.50;;
62707;SDS011;48769;51.624;5.886;2023-11-21T11:45:55;61.92;;;35.33;;
62707;SDS011;48769;51.624;5.886;2023-11-21T11:48:22;65.50;;;34.63;;
62707;SDS011;48769;51.624;5.886;2023-11-21T11:51:04;63.65;;;35.28;;
62707;SDS011;48769;51.624;5.886;2023-11-21T11:53:40;67.13;;;37.22;;
62707;SDS011;48769;51.624;5.886;2023-11-21T11:56:19;59.10;;;34.55;;
62707;SDS011;48769;51.624;5.886;2023-11-21T11:58:48;55.80;;;32.78;;
62707;SDS011;48769;51.624;5.886;2023-11-21T12:01:16;57.90;;;32.40;;
62707;SDS011;48769;51.624;5.886;2023-11-21T12:03:43;61.22;;;31.90;;
62707;SDS011;48769;51.624;5.886;2023-11-21T12:06:09;55.92;;;30.20;;
62707;SDS011;48769;51.624;5.886;2023-11-21T12:08:36;64.32;;;34.05;;
62707;SDS011;48769;51.624;5.886;2023-11-21T12:11:02;64.82;;;33.97;;
62707;SDS011;48769;51.624;5.886;2023-11-21T12:13:29;67.68;;;35.63;;
62707;SDS011;48769;51.624;5.886;2023-11-21T12:15:54;75.05;;;36.65;;
62707;SDS011;48769;51.624;5.886;2023-11-21T12:18:20;71.22;;;37.10;;
62707;SDS011;48769;51.624;5.886;2023-11-21T12:20:46;72.93;;;38.03;;
62707;SDS011;48769;51.624;5.886;2023-11-21T12:23:13;67.60;;;36.35;;
62707;SDS011;48769;51.624;5.886;2023-11-21T12:25:41;74.80;;;36.28;;
62707;SDS011;48769;51.624;5.886;2023-11-21T12:28:07;71.18;;;35.47;;
62707;SDS011;48769;51.624;5.886;2023-11-21T12:30:33;76.40;;;38.72;;
62707;SDS011;48769;51.624;5.886;2023-11-21T12:33:03;79.13;;;38.85;;
62707;SDS011;48769;51.624;5.886;2023-11-21T12:35:30;79.90;;;37.58;;
62707;SDS011;48769;51.624;5.886;2023-11-21T12:38:00;78.45;;;38.70;;
62707;SDS011;48769;51.624;5.886;2023-11-21T12:40:30;80.63;;;37.50;;
62707;SDS011;48769;51.624;5.886;2023-11-21T12:42:58;79.15;;;38.10;;
62707;SDS011;48769;51.624;5.886;2023-11-21T12:45:26;75.38;;;37.83;;
62707;SDS011;48769;51.624;5.886;2023-11-21T12:47:56;73.70;;;36.40;;
62707;SDS011;48769;51.624;5.886;2023-11-21T12:50:25;73.32;;;36.55;;
62707;SDS011;48769;51.624;5.886;2023-11-21T12:53:03;76.30;;;38.50;;
62707;SDS011;48769;51.624;5.886;2023-11-21T12:55:33;83.45;;;39.92;;
62707;SDS011;48769;51.624;5.886;2023-11-21T12:58:02;90.65;;;43.50;;
62707;SDS011;48769;51.624;5.886;2023-11-21T13:00:38;84.93;;;40.15;;
62707;SDS011;48769;51.624;5.886;2023-11-21T13:03:07;81.35;;;38.55;;
62707;SDS011;48769;51.624;5.886;2023-11-21T13:05:38;82.93;;;38.50;;
62707;SDS011;48769;51.624;5.886;2023-11-21T13:08:08;91.60;;;39.55;;
62707;SDS011;48769;51.624;5.886;2023-11-21T13:10:36;87.90;;;42.83;;
62707;SDS011;48769;51.624;5.886;2023-11-21T13:13:04;86.43;;;39.40;;
62707;SDS011;48769;51.624;5.886;2023-11-21T13:15:34;96.25;;;43.13;;
62707;SDS011;48769;51.624;5.886;2023-11-21T13:18:01;99.85;;;45.42;;
62707;SDS011;48769;51.624;5.886;2023-11-21T13:20:27;91.90;;;42.55;;
62707;SDS011;48769;51.624;5.886;2023-11-21T13:22:55;92.22;;;44.63;;
62707;SDS011;48769;51.624;5.886;2023-11-21T13:25:28;100.45;;;44.75;;
62707;SDS011;48769;51.624;5.886;2023-11-21T13:27:54;81.88;;;41.08;;
62707;SDS011;48769;51.624;5.886;2023-11-21T13:30:20;82.95;;;38.85;;
62707;SDS011;48769;51.624;5.886;2023-11-21T13:32:58;82.00;;;37.85;;
62707;SDS011;48769;51.624;5.886;2023-11-21T13:35:27;78.32;;;38.30;;
62707;SDS011;48769;51.624;5.886;2023-11-21T13:37:57;69.55;;;36.10;;
62707;SDS011;48769;51.624;5.886;2023-11-21T13:40:28;72.80;;;38.15;;
62707;SDS011;48769;51.624;5.886;2023-11-21T13:42:54;71.95;;;34.58;;
62707;SDS011;48769;51.624;5.886;2023-11-21T13:45:23;61.05;;;34.05;;
62707;SDS011;48769;51.624;5.886;2023-11-21T13:47:52;53.15;;;29.05;;
62707;SDS011;48769;51.624;5.886;2023-11-21T13:50:22;52.70;;;29.20;;
62707;SDS011;48769;51.624;5.886;2023-11-21T13:52:54;53.72;;;28.67;;
62707;SDS011;48769;51.624;5.886;2023-11-21T13:55:19;47.00;;;27.50;;
62707;SDS011;48769;51.624;5.886;2023-11-21T13:57:46;48.67;;;27.02;;
62707;SDS011;48769;51.624;5.886;2023-11-21T14:00:17;48.97;;;26.98;;
62707;SDS011;48769;51.624;5.886;2023-11-21T14:03:01;47.47;;;23.90;;
62707;SDS011;48769;51.624;5.886;2023-11-21T14:05:31;40.28;;;23.90;;
62707;SDS011;48769;51.624;5.886;2023-11-21T14:07:59;32.40;;;19.50;;
62707;SDS011;48769;51.624;5.886;2023-11-21T14:10:29;29.45;;;18.23;;
62707;SDS011;48769;51.624;5.886;2023-11-21T14:13:05;28.35;;;15.93;;
62707;SDS011;48769;51.624;5.886;2023-11-21T14:15:31;28.63;;;18.45;;
62707;SDS011;48769;51.624;5.886;2023-11-21T14:17:58;32.42;;;20.65;;
62707;SDS011;48769;51.624;5.886;2023-11-21T14:20:24;36.83;;;22.92;;
62707;SDS011;48769;51.624;5.886;2023-11-21T14:22:50;44.95;;;25.90;;
62707;SDS011;48769;51.624;5.886;2023-11-21T14:25:15;47.20;;;26.50;;
62707;SDS011;48769;51.624;5.886;2023-11-21T14:27:42;46.17;;;26.23;;
62707;SDS011;48769;51.624;5.886;2023-11-21T14:30:08;47.88;;;25.67;;
62707;SDS011;48769;51.624;5.886;2023-11-21T14:32:33;47.78;;;26.10;;